Time;durP1;ratioP1;P1;durP2;ratioP2;P2;SDS_P1;SDS_P2;PMS_P1;PMS_P2;Temp;Humidity;BMP_temperature;BMP_pressure;BME280_temperature;BME280_humidity;BME280_pressure;Samples;Min_cycle;Max_cycle;Signal;HPM_P1;HPM_P2
2023/01/21 00:00:57;;;;;;;10.85;5.50;;;;;;;;;;4951967;29;20051;-80
2023/01/21 00:03:23;;;;;;;11.43;6.38;;;;;;;;;;4952697;28;20055;-79
2023/01/21 00:05:50;;;;;;;9.57;4.97;;;;;;;;;;4959723;29;20078;-76
2023/01/21 00:08:16;;;;;;;18.95;8.48;;;;;;;;;;4961134;29;20027;-76
2023/01/21 00:10:42;;;;;;;14.60;6.65;;;;;;;;;;4954128;29;20031;-75
2023/01/21 00:13:08;;;;;;;11.13;5.85;;;;;;;;;;4953982;29;20054;-75
2023/01/21 00:15:35;;;;;;;11.75;5.10;;;;;;;;;;4960166;29;20024;-77
2023/01/21 00:18:01;;;;;;;13.15;5.43;;;;;;;;;;4958752;29;20352;-75
2023/01/21 00:20:27;;;;;;;10.23;6.65;;;;;;;;;;4956871;29;20038;-75
2023/01/21 00:22:53;;;;;;;9.95;4.90;;;;;;;;;;4956298;29;20028;-76
2023/01/21 00:25:19;;;;;;;13.13;5.75;;;;;;;;;;4952257;29;20100;-76
2023/01/21 00:27:45;;;;;;;18.77;6.72;;;;;;;;;;4950389;28;20024;-74
2023/01/21 00:30:11;;;;;;;12.60;5.85;;;;;;;;;;4950427;29;20461;-75
2023/01/21 00:32:37;;;;;;;11.73;5.85;;;;;;;;;;4953046;29;20049;-75
2023/01/21 00:35:04;;;;;;;10.10;5.70;;;;;;;;;;4959324;29;20031;-77
2023/01/21 00:37:30;;;;;;;14.30;5.72;;;;;;;;;;4974256;28;20050;-75
2023/01/21 00:39:56;;;;;;;6.97;5.15;;;;;;;;;;4958817;29;20034;-76
2023/01/21 00:42:22;;;;;;;12.18;6.43;;;;;;;;;;4957245;29;20027;-76
2023/01/21 00:44:48;;;;;;;17.42;7.13;;;;;;;;;;4955845;29;20537;-75
2023/01/21 00:47:15;;;;;;;11.10;5.60;;;;;;;;;;4973090;28;20028;-80
2023/01/21 00:49:40;;;;;;;17.65;7.47;;;;;;;;;;4956057;29;20121;-76
2023/01/21 00:52:06;;;;;;;11.23;5.20;;;;;;;;;;4956282;29;20063;-75
2023/01/21 00:54:34;;;;;;;10.73;5.60;;;;;;;;;;4958496;29;20110;-77
2023/01/21 00:57:00;;;;;;;12.43;6.82;;;;;;;;;;4953976;29;20408;-77
2023/01/21 00:59:27;;;;;;;15.65;6.95;;;;;;;;;;4953703;29;20019;-75
2023/01/21 01:01:53;;;;;;;15.38;8.15;;;;;;;;;;4968884;28;20038;-75
2023/01/21 01:04:19;;;;;;;12.93;6.85;;;;;;;;;;4967809;28;20114;-78
2023/01/21 01:06:45;;;;;;;12.30;7.22;;;;;;;;;;4956035;29;20023;-75
2023/01/21 01:09:11;;;;;;;12.48;7.15;;;;;;;;;;4956801;29;20031;-82
2023/01/21 01:11:38;;;;;;;13.18;6.47;;;;;;;;;;4956250;29;20494;-76
2023/01/21 01:14:04;;;;;;;14.85;6.10;;;;;;;;;;4969873;28;20027;-78
2023/01/21 01:16:31;;;;;;;13.13;7.10;;;;;;;;;;4954648;29;20059;-77
2023/01/21 01:18:57;;;;;;;11.27;5.05;;;;;;;;;;4957379;29;20482;-78
2023/01/21 01:21:23;;;;;;;9.68;5.53;;;;;;;;;;4956952;29;20032;-80
2023/01/21 01:23:53;;;;;;;11.90;7.22;;;;;;;;;;4973224;28;20089;-80
2023/01/21 01:26:20;;;;;;;11.73;6.63;;;;;;;;;;4956326;28;20019;-76
2023/01/21 01:28:46;;;;;;;15.98;7.72;;;;;;;;;;4955386;29;20031;-82
2023/01/21 01:31:14;;;;;;;18.63;7.93;;;;;;;;;;4955882;29;20383;-75
2023/01/21 01:33:40;;;;;;;19.77;8.48;;;;;;;;;;4955531;29;20035;-74
2023/01/21 01:36:11;;;;;;;20.23;8.05;;;;;;;;;;4954461;29;20054;-76
2023/01/21 01:38:37;;;;;;;23.40;8.98;;;;;;;;;;4954433;29;20027;-79
2023/01/21 01:41:04;;;;;;;21.00;8.60;;;;;;;;;;4954829;29;20031;-77
2023/01/21 01:43:50;;;;;;;19.20;7.32;;;;;;;;;;4955973;29;20264;-82
2023/01/21 01:46:16;;;;;;;19.02;8.63;;;;;;;;;;4936545;28;20484;-76
2023/01/21 01:48:44;;;;;;;15.90;7.00;;;;;;;;;;4958478;29;20042;-82
2023/01/21 01:51:11;;;;;;;16.08;8.50;;;;;;;;;;4959067;29;20129;-78
2023/01/21 01:53:39;;;;;;;18.33;7.88;;;;;;;;;;4957658;29;20397;-76
2023/01/21 01:56:06;;;;;;;16.55;7.63;;;;;;;;;;4955492;29;20055;-78
2023/01/21 01:58:32;;;;;;;14.30;6.82;;;;;;;;;;4955770;29;20027;-77
2023/01/21 02:00:59;;;;;;;14.23;6.82;;;;;;;;;;4954115;29;20031;-81
2023/01/21 02:03:44;;;;;;;16.02;5.55;;;;;;;;;;4953415;29;20441;-76
2023/01/21 02:06:13;;;;;;;17.13;8.32;;;;;;;;;;4954119;29;20440;-77
2023/01/21 02:08:39;;;;;;;15.43;6.20;;;;;;;;;;4951478;29;20391;-75
2023/01/21 02:11:10;;;;;;;16.70;6.10;;;;;;;;;;4953242;29;20106;-89
2023/01/21 02:13:36;;;;;;;12.70;6.00;;;;;;;;;;4950999;29;20033;-80
2023/01/21 02:16:20;;;;;;;11.32;5.28;;;;;;;;;;4949353;29;20027;-79
2023/01/21 02:19:05;;;;;;;13.07;6.35;;;;;;;;;;4950777;29;20033;-75
2023/01/21 02:21:45;;;;;;;10.20;4.57;;;;;;;;;;4950023;29;20038;-80
2023/01/21 02:24:30;;;;;;;11.55;4.88;;;;;;;;;;4948787;29;20020;-82
2023/01/21 02:26:59;;;;;;;17.00;5.95;;;;;;;;;;4950383;28;20113;-84
2023/01/21 02:29:43;;;;;;;14.43;5.45;;;;;;;;;;4953332;29;20042;-83
2023/01/21 02:32:18;;;;;;;12.32;5.15;;;;;;;;;;4954483;29;20082;-82
2023/01/21 02:35:03;;;;;;;12.90;5.22;;;;;;;;;;4955196;29;20058;-78
2023/01/21 02:37:39;;;;;;;11.88;5.05;;;;;;;;;;4952274;29;20054;-75
2023/01/21 02:40:10;;;;;;;9.88;5.10;;;;;;;;;;4954180;29;20059;-87
2023/01/21 02:42:46;;;;;;;13.60;6.40;;;;;;;;;;4951568;29;20031;-82
2023/01/21 02:45:12;;;;;;;13.65;5.20;;;;;;;;;;4953931;29;20030;-75
2023/01/21 02:47:38;;;;;;;9.68;5.25;;;;;;;;;;4953482;29;20110;-75
2023/01/21 02:50:10;;;;;;;15.02;6.05;;;;;;;;;;4949820;29;20090;-76
2023/01/21 02:52:36;;;;;;;14.45;6.07;;;;;;;;;;4950996;29;20090;-81
2023/01/21 02:55:03;;;;;;;11.73;4.60;;;;;;;;;;4949025;29;20252;-78
2023/01/21 02:57:42;;;;;;;12.45;6.28;;;;;;;;;;4949968;29;20439;-78
2023/01/21 03:00:10;;;;;;;15.85;6.93;;;;;;;;;;4964768;28;20040;-75
2023/01/21 03:02:36;;;;;;;13.07;5.75;;;;;;;;;;4964133;28;20039;-79
2023/01/21 03:05:05;;;;;;;9.88;5.43;;;;;;;;;;4949413;29;20114;-75
2023/01/21 03:07:35;;;;;;;9.52;5.28;;;;;;;;;;4949996;28;20027;-79
2023/01/21 03:10:09;;;;;;;7.78;4.55;;;;;;;;;;4963908;28;20050;-76
2023/01/21 03:12:46;;;;;;;11.18;5.72;;;;;;;;;;4964489;28;20044;-79
2023/01/21 03:18:26;;;;;;;12.85;4.50;;;;;;;;;;4972592;28;20039;-77
2023/01/21 03:20:54;;;;;;;13.05;5.32;;;;;;;;;;4967429;28;20030;-76
2023/01/21 03:23:23;;;;;;;12.48;4.20;;;;;;;;;;4968763;28;20069;-75
2023/01/21 03:25:50;;;;;;;13.98;5.32;;;;;;;;;;4969040;28;20034;-75
2023/01/21 03:28:21;;;;;;;10.80;5.75;;;;;;;;;;4971373;28;20027;-78
2023/01/21 03:30:48;;;;;;;11.13;4.97;;;;;;;;;;4970475;28;20717;-84
2023/01/21 03:33:16;;;;;;;13.55;5.03;;;;;;;;;;4968326;28;20035;-75
2023/01/21 03:35:43;;;;;;;11.20;4.78;;;;;;;;;;4969802;28;20047;-75
2023/01/21 03:38:14;;;;;;;10.40;5.05;;;;;;;;;;4968653;28;20031;-76
2023/01/21 03:40:43;;;;;;;11.60;4.53;;;;;;;;;;4970119;28;20014;-76
2023/01/21 03:43:09;;;;;;;9.07;4.60;;;;;;;;;;4971074;28;20034;-77
2023/01/21 03:46:00;;;;;;;12.23;4.68;;;;;;;;;;4971570;28;20051;-75
2023/01/21 03:48:33;;;;;;;10.63;5.07;;;;;;;;;;4967586;28;20039;-75
2023/01/21 03:51:02;;;;;;;8.07;4.70;;;;;;;;;;4972002;28;20061;-76
2023/01/21 03:53:28;;;;;;;8.55;5.05;;;;;;;;;;4969286;28;20094;-77
2023/01/21 03:55:54;;;;;;;14.07;5.07;;;;;;;;;;4958788;28;20030;-78
2023/01/21 03:58:20;;;;;;;9.52;4.95;;;;;;;;;;4953817;29;20035;-77
2023/01/21 04:00:48;;;;;;;13.10;5.25;;;;;;;;;;4952956;29;20023;-77
2023/01/21 04:03:14;;;;;;;8.77;4.75;;;;;;;;;;4951281;28;20047;-82
2023/01/21 04:05:40;;;;;;;8.13;4.03;;;;;;;;;;4951831;29;20031;-81
2023/01/21 04:08:05;;;;;;;8.45;4.45;;;;;;;;;;4954793;29;20649;-77
2023/01/21 04:10:31;;;;;;;6.93;4.20;;;;;;;;;;4954582;29;20066;-77
2023/01/21 04:12:57;;;;;;;12.82;5.20;;;;;;;;;;4953192;29;20071;-75
2023/01/21 04:15:24;;;;;;;8.93;4.57;;;;;;;;;;4954407;29;20512;-75
2023/01/21 04:17:50;;;;;;;11.82;5.32;;;;;;;;;;4954067;29;20038;-76
2023/01/21 04:20:16;;;;;;;11.23;4.95;;;;;;;;;;4952748;29;20027;-75
2023/01/21 04:22:42;;;;;;;9.70;5.30;;;;;;;;;;4953338;29;20287;-76
2023/01/21 04:25:08;;;;;;;14.98;5.20;;;;;;;;;;4954307;29;20749;-75
2023/01/21 04:27:34;;;;;;;18.25;6.63;;;;;;;;;;4950850;29;20042;-76
2023/01/21 04:30:00;;;;;;;9.43;5.15;;;;;;;;;;4950168;29;20032;-75
2023/01/21 04:32:26;;;;;;;14.27;5.50;;;;;;;;;;4951655;29;20485;-75
2023/01/21 04:34:52;;;;;;;14.57;4.55;;;;;;;;;;4951149;28;20015;-75
2023/01/21 04:37:18;;;;;;;11.25;5.40;;;;;;;;;;4953371;29;20083;-77
2023/01/21 04:39:44;;;;;;;11.65;5.82;;;;;;;;;;4949650;29;20131;-82
2023/01/21 04:42:10;;;;;;;8.52;4.90;;;;;;;;;;4950120;29;20408;-79
2023/01/21 04:44:36;;;;;;;9.13;4.22;;;;;;;;;;4950835;29;20028;-81
2023/01/21 04:47:02;;;;;;;8.35;5.28;;;;;;;;;;4951754;29;20032;-78
2023/01/21 04:49:28;;;;;;;11.80;4.50;;;;;;;;;;4952624;28;20031;-76
2023/01/21 04:51:54;;;;;;;11.93;4.90;;;;;;;;;;4955889;29;20050;-77
2023/01/21 04:54:20;;;;;;;10.13;5.43;;;;;;;;;;4954225;29;20058;-77
2023/01/21 04:56:46;;;;;;;6.25;4.28;;;;;;;;;;4953946;29;20023;-78
2023/01/21 04:59:12;;;;;;;9.13;4.65;;;;;;;;;;4953592;29;20027;-77
2023/01/21 05:01:38;;;;;;;5.47;3.95;;;;;;;;;;4953980;29;20027;-79
2023/01/21 05:04:06;;;;;;;7.70;3.83;;;;;;;;;;4970790;28;20198;-79
2023/01/21 05:06:32;;;;;;;10.90;4.80;;;;;;;;;;4955940;28;20634;-81
2023/01/21 05:08:58;;;;;;;9.23;4.75;;;;;;;;;;4954214;29;20259;-78
2023/01/21 05:11:24;;;;;;;10.70;4.88;;;;;;;;;;4952882;29;20118;-88
2023/01/21 05:13:50;;;;;;;10.48;5.50;;;;;;;;;;4952669;29;20195;-80
2023/01/21 05:16:16;;;;;;;9.60;4.95;;;;;;;;;;4953364;29;20196;-76
2023/01/21 05:18:44;;;;;;;6.93;4.47;;;;;;;;;;4952550;29;20023;-85
2023/01/21 05:21:10;;;;;;;7.78;4.53;;;;;;;;;;4952873;28;20023;-78
2023/01/21 05:23:36;;;;;;;9.43;4.22;;;;;;;;;;4967979;28;20027;-75
2023/01/21 05:26:02;;;;;;;8.55;4.55;;;;;;;;;;4953619;29;20031;-77
2023/01/21 05:28:28;;;;;;;11.35;4.63;;;;;;;;;;4954203;29;20400;-76
2023/01/21 05:30:54;;;;;;;5.85;3.65;;;;;;;;;;4957643;29;20483;-75
2023/01/21 05:33:24;;;;;;;12.15;5.45;;;;;;;;;;4957433;29;20477;-77
2023/01/21 05:35:51;;;;;;;11.00;4.40;;;;;;;;;;4958111;28;20258;-79
2023/01/21 05:38:17;;;;;;;10.38;5.00;;;;;;;;;;4957958;28;20042;-76
2023/01/21 05:40:43;;;;;;;10.00;5.40;;;;;;;;;;4968828;28;20405;-80
2023/01/21 05:43:09;;;;;;;9.48;5.55;;;;;;;;;;4969366;28;20056;-76
2023/01/21 05:45:35;;;;;;;12.77;5.15;;;;;;;;;;4968982;28;20031;-75
2023/01/21 05:48:01;;;;;;;11.68;4.85;;;;;;;;;;4955420;29;20370;-76
2023/01/21 05:50:27;;;;;;;9.45;4.10;;;;;;;;;;4969982;28;20063;-76
2023/01/21 05:52:53;;;;;;;10.15;4.90;;;;;;;;;;4952689;29;20400;-76
2023/01/21 05:55:19;;;;;;;8.40;4.43;;;;;;;;;;4953657;29;20027;-76
2023/01/21 05:57:45;;;;;;;11.32;5.43;;;;;;;;;;4952148;29;20481;-77
2023/01/21 06:00:11;;;;;;;8.73;5.45;;;;;;;;;;4952664;29;20027;-76
2023/01/21 06:02:37;;;;;;;6.32;2.83;;;;;;;;;;4951146;29;20023;-76
2023/01/21 06:05:03;;;;;;;7.70;4.03;;;;;;;;;;4955546;29;20031;-79
2023/01/21 06:07:29;;;;;;;11.05;4.82;;;;;;;;;;4952854;29;20035;-76
2023/01/21 06:09:55;;;;;;;8.70;4.13;;;;;;;;;;4955438;29;20028;-75
2023/01/21 06:12:21;;;;;;;8.50;4.80;;;;;;;;;;4955398;29;20098;-79
2023/01/21 06:14:47;;;;;;;12.20;5.40;;;;;;;;;;4954774;29;20051;-81
2023/01/21 06:17:13;;;;;;;15.45;6.22;;;;;;;;;;4957205;29;20095;-78
2023/01/21 06:19:39;;;;;;;7.68;4.65;;;;;;;;;;4957799;29;20469;-79
2023/01/21 06:22:05;;;;;;;9.88;4.03;;;;;;;;;;4956293;29;20031;-78
2023/01/21 06:24:31;;;;;;;10.05;5.20;;;;;;;;;;4953976;29;20362;-76
2023/01/21 06:26:57;;;;;;;14.05;5.60;;;;;;;;;;4954755;29;20027;-77
2023/01/21 06:29:23;;;;;;;12.13;4.40;;;;;;;;;;4954440;29;20027;-78
2023/01/21 06:31:49;;;;;;;12.75;5.93;;;;;;;;;;4956608;29;20051;-79
2023/01/21 06:34:15;;;;;;;12.85;5.78;;;;;;;;;;4953412;29;20027;-90
2023/01/21 06:36:41;;;;;;;9.45;4.60;;;;;;;;;;4955924;29;20464;-79
2023/01/21 06:39:08;;;;;;;10.43;4.90;;;;;;;;;;4957170;29;20504;-78
2023/01/21 06:41:34;;;;;;;13.57;5.75;;;;;;;;;;4956678;29;20472;-75
2023/01/21 06:44:00;;;;;;;10.50;4.53;;;;;;;;;;4956996;29;20078;-77
2023/01/21 06:46:26;;;;;;;14.27;4.47;;;;;;;;;;4954528;29;20023;-78
2023/01/21 06:48:53;;;;;;;11.38;4.80;;;;;;;;;;4955566;29;20377;-75
2023/01/21 06:51:19;;;;;;;9.98;5.25;;;;;;;;;;4954902;29;20118;-76
2023/01/21 06:53:45;;;;;;;11.90;5.65;;;;;;;;;;4953837;29;20244;-80
2023/01/21 06:56:11;;;;;;;13.63;6.03;;;;;;;;;;4952960;29;20561;-78
2023/01/21 06:58:37;;;;;;;12.23;6.15;;;;;;;;;;4970304;28;20038;-88
2023/01/21 07:01:03;;;;;;;12.88;5.65;;;;;;;;;;4957261;29;20046;-86
2023/01/21 07:03:29;;;;;;;13.23;6.03;;;;;;;;;;4957700;29;20027;-76
2023/01/21 07:05:55;;;;;;;12.20;5.53;;;;;;;;;;4954293;29;20023;-78
2023/01/21 07:08:21;;;;;;;15.18;5.47;;;;;;;;;;4955236;29;20031;-80
2023/01/21 07:10:47;;;;;;;12.75;5.65;;;;;;;;;;4956164;29;20039;-80
2023/01/21 07:13:13;;;;;;;18.38;6.50;;;;;;;;;;4957642;28;20047;-79
2023/01/21 07:15:39;;;;;;;15.48;5.47;;;;;;;;;;4956848;29;20234;-80
2023/01/21 07:18:05;;;;;;;13.45;6.75;;;;;;;;;;4959560;29;20023;-80
2023/01/21 07:20:31;;;;;;;7.90;4.65;;;;;;;;;;4957517;28;20032;-77
2023/01/21 07:22:57;;;;;;;12.50;5.85;;;;;;;;;;4957062;28;20031;-81
2023/01/21 07:25:23;;;;;;;16.42;7.43;;;;;;;;;;4957708;29;20026;-89
2023/01/21 07:27:49;;;;;;;21.00;7.10;;;;;;;;;;4959089;29;20506;-84
2023/01/21 07:30:17;;;;;;;16.80;7.10;;;;;;;;;;4970975;28;20073;-77
2023/01/21 07:32:44;;;;;;;14.87;6.00;;;;;;;;;;4956459;29;20062;-77
2023/01/21 07:35:13;;;;;;;14.88;5.80;;;;;;;;;;4956100;29;20102;-79
2023/01/21 07:37:39;;;;;;;11.27;6.65;;;;;;;;;;4971556;28;20035;-76
2023/01/21 07:40:05;;;;;;;19.00;7.40;;;;;;;;;;4956661;29;20063;-86
2023/01/21 07:42:31;;;;;;;17.70;7.35;;;;;;;;;;4956544;29;20042;-78
2023/01/21 07:44:58;;;;;;;16.63;7.50;;;;;;;;;;4973071;28;20031;-82
2023/01/21 07:47:24;;;;;;;13.60;6.82;;;;;;;;;;4973735;28;20097;-81
2023/01/21 07:49:50;;;;;;;19.60;8.52;;;;;;;;;;4958180;29;20036;-83
2023/01/21 07:52:16;;;;;;;24.10;8.48;;;;;;;;;;4974148;28;20035;-76
2023/01/21 07:54:42;;;;;;;21.98;8.30;;;;;;;;;;4971986;28;20180;-83
2023/01/21 07:57:08;;;;;;;22.33;12.27;;;;;;;;;;4970073;28;20504;-79
2023/01/21 07:59:34;;;;;;;17.50;8.48;;;;;;;;;;4955499;29;20031;-79
2023/01/21 08:02:00;;;;;;;22.55;8.85;;;;;;;;;;4953623;29;20031;-77
2023/01/21 08:04:26;;;;;;;19.58;8.00;;;;;;;;;;4969753;28;20031;-80
2023/01/21 08:06:55;;;;;;;19.00;8.85;;;;;;;;;;4954862;29;20037;-77
2023/01/21 08:09:22;;;;;;;17.80;8.35;;;;;;;;;;4972346;28;20118;-80
2023/01/21 08:11:48;;;;;;;13.90;6.85;;;;;;;;;;4956179;29;20054;-80
2023/01/21 08:14:14;;;;;;;20.60;8.65;;;;;;;;;;4948378;29;20063;-92
2023/01/21 08:16:40;;;;;;;18.15;8.93;;;;;;;;;;4948959;29;20028;-92
2023/01/21 08:19:06;;;;;;;16.38;8.55;;;;;;;;;;4967487;28;20023;-80
2023/01/21 08:21:32;;;;;;;20.45;8.38;;;;;;;;;;4968719;28;20026;-85
2023/01/21 08:23:58;;;;;;;19.13;9.73;;;;;;;;;;4950638;28;20031;-81
2023/01/21 08:26:24;;;;;;;16.85;8.43;;;;;;;;;;4968170;28;20114;-85
2023/01/21 08:28:53;;;;;;;19.30;9.02;;;;;;;;;;4957051;29;20030;-88
2023/01/21 08:31:20;;;;;;;22.58;11.10;;;;;;;;;;4961782;29;20035;-80
2023/01/21 08:33:46;;;;;;;25.45;11.90;;;;;;;;;;4963386;29;20019;-80
2023/01/21 08:36:12;;;;;;;24.77;10.13;;;;;;;;;;4962128;29;20063;-88
2023/01/21 08:38:38;;;;;;;23.05;10.88;;;;;;;;;;4963298;29;20062;-78
2023/01/21 08:41:05;;;;;;;22.63;11.40;;;;;;;;;;4963593;28;20031;-82
2023/01/21 08:43:31;;;;;;;27.55;11.30;;;;;;;;;;4960789;29;20035;-78
2023/01/21 08:45:58;;;;;;;25.23;12.45;;;;;;;;;;4960708;29;20086;-81
2023/01/21 08:48:24;;;;;;;24.08;10.55;;;;;;;;;;4963879;28;20311;-88
2023/01/21 08:50:50;;;;;;;21.42;9.80;;;;;;;;;;4977689;28;20031;-80
2023/01/21 08:53:16;;;;;;;22.70;10.68;;;;;;;;;;4957336;28;20374;-88
2023/01/21 08:55:42;;;;;;;21.67;10.80;;;;;;;;;;4960793;29;20066;-90
2023/01/21 08:58:08;;;;;;;21.45;9.88;;;;;;;;;;4961668;28;20073;-80
2023/01/21 09:00:34;;;;;;;41.10;11.82;;;;;;;;;;4965227;28;20026;-89
2023/01/21 09:03:00;;;;;;;27.35;10.55;;;;;;;;;;4962083;28;20035;-82
2023/01/21 09:05:26;;;;;;;30.15;11.73;;;;;;;;;;4955011;28;20078;-87
2023/01/21 09:07:52;;;;;;;29.67;14.55;;;;;;;;;;4956465;29;20073;-81
2023/01/21 09:13:04;;;;;;;28.42;12.40;;;;;;;;;;4954526;28;21145;-80
2023/01/21 09:15:30;;;;;;;25.25;12.70;;;;;;;;;;4955516;29;20024;-87
2023/01/21 09:17:56;;;;;;;32.65;12.95;;;;;;;;;;4959006;28;20070;-88
2023/01/21 09:20:22;;;;;;;30.13;11.82;;;;;;;;;;4954981;29;20148;-84
2023/01/21 09:22:48;;;;;;;26.67;12.55;;;;;;;;;;4967413;29;20025;-78
2023/01/21 09:25:15;;;;;;;28.48;12.80;;;;;;;;;;4969203;28;20023;-80
2023/01/21 09:27:41;;;;;;;24.77;12.52;;;;;;;;;;4965305;29;20067;-79
2023/01/21 09:30:07;;;;;;;33.85;14.63;;;;;;;;;;4967146;28;20023;-79
2023/01/21 09:32:33;;;;;;;22.42;11.30;;;;;;;;;;4980426;28;20483;-80
2023/01/21 09:34:59;;;;;;;26.38;12.35;;;;;;;;;;4969538;28;20042;-76
2023/01/21 09:37:25;;;;;;;22.52;11.15;;;;;;;;;;4968737;28;20023;-79
2023/01/21 09:39:51;;;;;;;24.05;11.15;;;;;;;;;;4972878;29;20083;-81
2023/01/21 09:42:20;;;;;;;22.05;11.88;;;;;;;;;;4962632;29;20051;-77
2023/01/21 09:44:48;;;;;;;20.50;8.23;;;;;;;;;;4962383;28;20011;-76
2023/01/21 09:47:21;;;;;;;21.55;11.23;;;;;;;;;;4978634;28;20030;-77
2023/01/21 09:49:50;;;;;;;18.25;9.40;;;;;;;;;;4969053;29;20031;-77
2023/01/21 09:52:35;;;;;;;17.67;7.70;;;;;;;;;;4971432;29;20031;-76
2023/01/21 09:55:02;;;;;;;16.95;8.45;;;;;;;;;;4971521;29;20293;-76
2023/01/21 09:57:37;;;;;;;18.00;8.52;;;;;;;;;;4970542;29;20473;-78
2023/01/21 10:00:13;;;;;;;16.42;8.25;;;;;;;;;;4969113;29;20051;-80
2023/01/21 10:02:59;;;;;;;13.95;7.07;;;;;;;;;;4971039;29;20031;-77
2023/01/21 10:05:44;;;;;;;16.52;8.18;;;;;;;;;;4966887;28;20027;-82
2023/01/21 10:08:16;;;;;;;18.42;8.98;;;;;;;;;;4971700;28;20023;-83
2023/01/21 10:10:49;;;;;;;11.82;5.50;;;;;;;;;;4966949;28;20155;-77
2023/01/21 10:13:18;;;;;;;11.82;6.93;;;;;;;;;;4951290;28;20043;-83
2023/01/21 10:15:49;;;;;;;16.25;8.10;;;;;;;;;;4959151;29;20027;-88
2023/01/21 10:18:19;;;;;;;13.15;7.88;;;;;;;;;;4956577;29;20110;-82
2023/01/21 10:20:49;;;;;;;15.75;5.65;;;;;;;;;;4954609;29;20386;-86
2023/01/21 10:23:25;;;;;;;15.35;7.05;;;;;;;;;;4958948;29;20027;-85
2023/01/21 10:25:51;;;;;;;12.63;6.50;;;;;;;;;;4958248;29;20031;-82
2023/01/21 10:28:29;;;;;;;15.63;5.95;;;;;;;;;;4959581;29;20046;-82
2023/01/21 10:30:58;;;;;;;18.77;10.43;;;;;;;;;;4957629;29;20390;-82
2023/01/21 10:33:25;;;;;;;13.20;8.27;;;;;;;;;;4959417;29;20031;-81
2023/01/21 10:35:54;;;;;;;21.02;7.38;;;;;;;;;;4957271;29;20051;-77
2023/01/21 10:38:23;;;;;;;10.55;5.60;;;;;;;;;;4960355;29;20054;-81
2023/01/21 10:41:11;;;;;;;13.13;6.22;;;;;;;;;;4956891;29;20310;-79
2023/01/21 10:43:51;;;;;;;17.65;6.95;;;;;;;;;;4962611;29;20026;-79
2023/01/21 10:46:40;;;;;;;20.17;7.82;;;;;;;;;;4961441;29;20024;-79
2023/01/21 10:49:24;;;;;;;18.08;8.63;;;;;;;;;;4958152;29;20094;-80
2023/01/21 10:51:55;;;;;;;18.75;8.57;;;;;;;;;;4960448;29;20070;-78
2023/01/21 10:54:33;;;;;;;15.55;8.35;;;;;;;;;;4962532;29;20330;-82
2023/01/21 10:57:08;;;;;;;14.98;6.20;;;;;;;;;;4956875;28;20126;-82
2023/01/21 10:59:35;;;;;;;17.80;7.93;;;;;;;;;;4958514;28;20019;-79
2023/01/21 11:02:04;;;;;;;14.73;6.28;;;;;;;;;;4958378;28;20015;-75
2023/01/21 11:04:31;;;;;;;12.77;5.93;;;;;;;;;;4965816;29;20079;-78
2023/01/21 11:07:05;;;;;;;9.90;5.13;;;;;;;;;;4970459;28;20022;-80
2023/01/21 11:09:33;;;;;;;8.82;4.95;;;;;;;;;;4958475;28;20230;-83
2023/01/21 11:12:00;;;;;;;6.70;4.10;;;;;;;;;;4964656;29;20047;-80
2023/01/21 11:14:26;;;;;;;12.63;5.90;;;;;;;;;;4966370;29;20082;-82
2023/01/21 11:16:53;;;;;;;10.20;5.38;;;;;;;;;;4966952;29;20047;-81
2023/01/21 11:19:29;;;;;;;10.05;5.68;;;;;;;;;;4963707;29;20058;-87
2023/01/21 11:22:14;;;;;;;15.45;5.20;;;;;;;;;;4966621;28;20078;-83
2023/01/21 11:24:51;;;;;;;12.32;5.68;;;;;;;;;;4966301;29;20050;-82
2023/01/21 11:27:23;;;;;;;7.68;4.90;;;;;;;;;;4969993;29;20051;-85
2023/01/21 11:29:50;;;;;;;5.75;4.35;;;;;;;;;;4964442;29;20031;-80
2023/01/21 11:32:16;;;;;;;7.00;3.72;;;;;;;;;;4962788;29;20110;-75
2023/01/21 11:34:48;;;;;;;13.77;6.55;;;;;;;;;;4967026;29;20021;-77
2023/01/21 11:37:28;;;;;;;6.07;3.42;;;;;;;;;;4966127;29;20038;-79
2023/01/21 11:40:03;;;;;;;10.23;3.42;;;;;;;;;;4964926;28;20030;-75
2023/01/21 11:42:30;;;;;;;6.75;3.58;;;;;;;;;;4962788;29;20318;-74
2023/01/21 11:45:05;;;;;;;7.72;4.75;;;;;;;;;;4956931;29;20042;-78
2023/01/21 11:47:49;;;;;;;10.20;4.40;;;;;;;;;;4958929;29;20028;-76
2023/01/21 11:50:25;;;;;;;9.93;4.15;;;;;;;;;;4963203;29;20050;-79
2023/01/21 11:53:07;;;;;;;5.13;3.92;;;;;;;;;;4965007;29;20035;-76
2023/01/21 11:55:40;;;;;;;7.70;5.40;;;;;;;;;;4963871;29;20033;-85
2023/01/21 11:58:15;;;;;;;8.57;5.00;;;;;;;;;;4965984;29;20030;-82
2023/01/21 12:00:44;;;;;;;8.85;4.65;;;;;;;;;;4956576;29;20047;-76
2023/01/21 12:03:13;;;;;;;9.30;4.32;;;;;;;;;;4954597;29;20024;-76
2023/01/21 12:05:39;;;;;;;;;;;;;;;;;;4954566;29;20063;-77
2023/01/21 12:08:09;;;;;;;5.90;4.05;;;;;;;;;;4960837;28;19914;-82
2023/01/21 12:10:45;;;;;;;10.05;5.03;;;;;;;;;;4970006;28;20146;-81
2023/01/21 12:13:18;;;;;;;8.32;5.93;;;;;;;;;;4968915;28;20046;-75
2023/01/21 12:15:51;;;;;;;7.85;4.95;;;;;;;;;;4970824;28;20023;-83
2023/01/21 12:18:35;;;;;;;10.82;6.10;;;;;;;;;;4970659;28;20105;-87
2023/01/21 12:21:06;;;;;;;13.18;5.60;;;;;;;;;;4964507;28;20054;-79
2023/01/21 12:23:41;;;;;;;11.50;6.30;;;;;;;;;;4971920;28;20061;-82
2023/01/21 12:26:13;;;;;;;10.88;5.78;;;;;;;;;;4962928;28;20460;-81
2023/01/21 12:28:58;;;;;;;10.73;6.07;;;;;;;;;;4965195;28;20031;-80
2023/01/21 12:31:33;;;;;;;11.05;5.80;;;;;;;;;;4960254;28;20366;-76
2023/01/21 12:34:09;;;;;;;9.65;5.85;;;;;;;;;;4957431;29;20057;-80
2023/01/21 12:36:41;;;;;;;9.40;5.57;;;;;;;;;;4956210;29;20240;-80
2023/01/21 12:39:17;;;;;;;7.03;5.45;;;;;;;;;;4958393;29;20023;-78
2023/01/21 12:41:45;;;;;;;6.85;4.68;;;;;;;;;;4955468;29;20066;-74
2023/01/21 12:44:18;;;;;;;6.45;4.45;;;;;;;;;;4957948;29;20024;-88
2023/01/21 12:46:47;;;;;;;9.18;4.72;;;;;;;;;;4957318;29;20035;-78
2023/01/21 12:49:17;;;;;;;9.45;5.80;;;;;;;;;;4954163;29;20031;-90
2023/01/21 12:51:49;;;;;;;9.57;5.25;;;;;;;;;;4956514;29;20027;-83
2023/01/21 12:54:34;;;;;;;13.85;5.78;;;;;;;;;;4957159;29;20042;-77
2023/01/21 12:57:09;;;;;;;16.13;7.47;;;;;;;;;;4935308;29;20050;-81
2023/01/21 12:59:41;;;;;;;7.57;5.22;;;;;;;;;;4937428;29;20031;-92
2023/01/21 13:02:17;;;;;;;15.68;8.02;;;;;;;;;;4939011;29;20032;-79
2023/01/21 13:05:07;;;;;;;13.25;6.60;;;;;;;;;;4938853;29;20030;-82
2023/01/21 13:07:36;;;;;;;16.10;6.35;;;;;;;;;;4939526;29;20103;-78
2023/01/21 13:10:14;;;;;;;10.70;5.93;;;;;;;;;;4939476;29;20032;-77
2023/01/21 13:12:41;;;;;;;15.40;7.70;;;;;;;;;;4938916;29;20259;-75
2023/01/21 13:15:26;;;;;;;19.52;8.18;;;;;;;;;;4935966;29;20115;-78
2023/01/21 13:17:57;;;;;;;17.80;8.15;;;;;;;;;;4940471;29;20042;-76
2023/01/21 13:20:24;;;;;;;14.40;6.40;;;;;;;;;;4940821;29;20035;-81
2023/01/21 13:22:51;;;;;;;24.98;7.75;;;;;;;;;;4940142;29;20099;-82
2023/01/21 13:25:27;;;;;;;15.43;8.07;;;;;;;;;;4938210;29;20020;-77
2023/01/21 13:28:08;;;;;;;19.35;9.82;;;;;;;;;;4939238;29;20066;-84
2023/01/21 13:30:53;;;;;;;19.48;8.68;;;;;;;;;;4939968;29;20043;-75
2023/01/21 13:33:24;;;;;;;23.63;10.50;;;;;;;;;;4941966;29;20057;-87
2023/01/21 13:36:20;;;;;;;19.83;10.55;;;;;;;;;;4940977;29;20065;-79
2023/01/21 13:39:04;;;;;;;12.38;7.82;;;;;;;;;;4889534;29;20136;-83
2023/01/21 13:41:49;;;;;;;15.90;7.88;;;;;;;;;;4939515;29;20300;-78
2023/01/21 13:44:27;;;;;;;22.15;10.25;;;;;;;;;;4941615;29;20034;-75
2023/01/21 13:47:03;;;;;;;14.25;7.70;;;;;;;;;;4942992;29;20038;-75
2023/01/21 13:49:35;;;;;;;12.98;6.40;;;;;;;;;;4942355;29;20285;-80
2023/01/21 13:52:10;;;;;;;13.25;7.15;;;;;;;;;;4938852;29;20067;-74
2023/01/21 13:54:42;;;;;;;14.13;7.70;;;;;;;;;;4939271;29;20035;-76
2023/01/21 13:57:17;;;;;;;12.73;7.10;;;;;;;;;;4955494;29;20385;-74
2023/01/21 13:59:58;;;;;;;20.17;9.82;;;;;;;;;;4957909;29;20167;-76
2023/01/21 14:02:29;;;;;;;19.52;8.10;;;;;;;;;;4958336;29;20031;-75
2023/01/21 14:05:09;;;;;;;21.42;7.45;;;;;;;;;;4971766;28;20027;-75
2023/01/21 14:07:37;;;;;;;22.23;9.07;;;;;;;;;;4959250;29;20070;-76
2023/01/21 14:10:03;;;;;;;21.67;7.68;;;;;;;;;;4960182;29;20106;-75
2023/01/21 14:12:32;;;;;;;17.70;9.63;;;;;;;;;;4974532;28;20285;-77
2023/01/21 14:15:01;;;;;;;20.30;8.32;;;;;;;;;;4969684;28;20106;-77
2023/01/21 14:17:46;;;;;;;14.55;6.38;;;;;;;;;;4959664;29;20033;-75
2023/01/21 14:20:21;;;;;;;15.15;7.35;;;;;;;;;;4960395;29;20341;-77
2023/01/21 14:23:04;;;;;;;16.02;9.00;;;;;;;;;;4957066;28;20034;-77
2023/01/21 14:25:31;;;;;;;22.23;7.20;;;;;;;;;;4958596;29;20034;-74
2023/01/21 14:27:57;;;;;;;16.92;8.30;;;;;;;;;;4959305;28;20015;-78
2023/01/21 14:30:27;;;;;;;15.95;8.25;;;;;;;;;;4960095;29;20106;-78
2023/01/21 14:32:59;;;;;;;15.82;7.85;;;;;;;;;;4972220;28;20043;-77
2023/01/21 14:35:31;;;;;;;15.77;7.78;;;;;;;;;;4959907;29;20057;-79
2023/01/21 14:38:24;;;;;;;14.38;6.75;;;;;;;;;;4959408;28;20018;-75
2023/01/21 14:40:51;;;;;;;12.57;7.28;;;;;;;;;;4957898;28;20041;-76
2023/01/21 14:43:32;;;;;;;12.05;6.05;;;;;;;;;;4959900;29;20027;-74
2023/01/21 14:45:59;;;;;;;22.20;7.65;;;;;;;;;;4961558;29;20020;-78
2023/01/21 14:48:29;;;;;;;17.05;6.72;;;;;;;;;;4960720;29;20035;-74
2023/01/21 14:51:09;;;;;;;18.00;7.10;;;;;;;;;;4973881;28;20035;-78